Time;durP1;ratioP1;P1;durP2;ratioP2;P2;SDS_P1;SDS_P2;PMS_P1;PMS_P2;Temp;Humidity;BMP_temperature;BMP_pressure;BME280_temperature;BME280_humidity;BME280_pressure;Samples;Min_cycle;Max_cycle;Signal;HPM_P1;HPM_P2
2023/08/07 04:00:21;;;;;;;0.97;0.97;;;14.90;99.90;;;;;;5888629;23;22112;-75
2023/08/07 04:02:48;;;;;;;0.83;0.83;;;14.90;99.90;;;;;;4886188;29;20478;-70
2023/08/07 04:05:15;;;;;;;1.60;1.50;;;14.90;99.90;;;;;;4890331;29;20475;-69
2023/08/07 04:07:41;;;;;;;0.40;0.40;;;14.90;99.90;;;;;;4893244;29;21279;-67
2023/08/07 04:10:09;;;;;;;1.10;1.10;;;14.90;99.90;;;;;;4891060;29;20476;-69
2023/08/07 04:12:35;;;;;;;1.57;1.57;;;14.90;99.90;;;;;;4867444;29;20468;-69
2023/08/07 04:15:02;;;;;;;5.50;0.87;;;14.90;99.90;;;;;;4873648;29;20880;-70
2023/08/07 04:17:30;;;;;;;0.87;0.80;;;14.90;99.90;;;;;;4883477;29;20495;-67
2023/08/07 04:19:57;;;;;;;1.40;1.40;;;15.00;99.90;;;;;;4872095;29;20473;-67
2023/08/07 04:22:23;;;;;;;0.97;0.93;;;15.00;99.90;;;;;;4871486;29;20492;-67
2023/08/07 04:24:50;;;;;;;4.23;1.20;;;15.00;99.90;;;;;;4874865;29;20945;-69
2023/08/07 04:27:17;;;;;;;1.63;0.97;;;15.00;99.90;;;;;;4874504;29;20480;-68
2023/08/07 04:29:43;;;;;;;1.50;1.30;;;15.00;99.90;;;;;;4865419;29;20487;-68
2023/08/07 04:32:10;;;;;;;1.63;0.90;;;15.10;99.90;;;;;;4881507;29;20499;-67
2023/08/07 04:34:38;;;;;;;1.27;1.27;;;15.10;99.90;;;;;;4882997;29;20472;-69
2023/08/07 04:37:06;;;;;;;1.20;1.20;;;15.10;99.90;;;;;;4875183;29;20499;-70
2023/08/07 04:39:32;;;;;;;9.10;1.27;;;15.10;99.90;;;;;;4875660;29;20504;-72
2023/08/07 04:41:59;;;;;;;1.00;1.00;;;15.10;99.90;;;;;;4875142;29;20572;-69
2023/08/07 04:44:26;;;;;;;1.20;1.20;;;15.10;99.90;;;;;;4879925;29;20594;-71
2023/08/07 04:46:53;;;;;;;0.80;0.80;;;15.20;99.90;;;;;;4886444;29;20462;-72
2023/08/07 04:49:19;;;;;;;0.83;0.83;;;15.20;99.90;;;;;;4877046;29;20876;-69
2023/08/07 04:51:47;;;;;;;0.60;0.60;;;15.20;99.90;;;;;;4875269;29;20507;-69
2023/08/07 04:54:14;;;;;;;3.60;1.30;;;15.20;99.90;;;;;;4873675;29;20472;-69
2023/08/07 04:56:44;;;;;;;1.10;0.73;;;15.30;99.90;;;;;;4880944;29;20487;-69
2023/08/07 04:59:10;;;;;;;1.07;1.07;;;15.30;99.90;;;;;;4879471;29;20555;-68
2023/08/07 05:01:37;;;;;;;1.13;1.13;;;15.30;99.90;;;;;;4880085;29;20506;-71
2023/08/07 05:04:04;;;;;;;0.67;0.67;;;15.30;99.90;;;;;;4881044;29;20582;-69
2023/08/07 05:06:31;;;;;;;0.80;0.80;;;15.30;99.90;;;;;;4872698;29;20535;-71
2023/08/07 05:08:59;;;;;;;0.70;0.70;;;15.40;99.90;;;;;;4879021;29;20472;-69
2023/08/07 05:11:26;;;;;;;0.57;0.57;;;15.40;99.90;;;;;;4870044;29;20575;-69
2023/08/07 05:13:53;;;;;;;0.80;0.80;;;15.50;99.90;;;;;;4887305;29;20463;-68
2023/08/07 05:16:19;;;;;;;0.70;0.70;;;15.50;99.90;;;;;;4879616;29;20503;-71
2023/08/07 05:18:46;;;;;;;0.70;0.67;;;15.50;99.90;;;;;;4873775;29;20480;-70
2023/08/07 05:21:13;;;;;;;2.13;1.90;;;15.60;99.90;;;;;;4879059;29;20495;-68
2023/08/07 05:23:40;;;;;;;1.60;1.60;;;15.60;99.90;;;;;;4875609;29;20575;-71
2023/08/07 05:26:08;;;;;;;2.37;1.77;;;15.60;99.90;;;;;;4874251;29;20469;-69
2023/08/07 05:28:34;;;;;;;2.40;1.30;;;15.60;99.90;;;;;;4882632;29;20939;-69
2023/08/07 05:31:01;;;;;;;1.03;1.03;;;15.70;99.90;;;;;;4878050;29;20526;-70
2023/08/07 05:33:28;;;;;;;3.20;1.10;;;15.60;99.90;;;;;;4874664;29;20491;-68
2023/08/07 05:35:55;;;;;;;0.97;0.97;;;15.70;99.90;;;;;;4880964;29;20479;-69
2023/08/07 05:38:22;;;;;;;1.27;1.27;;;15.80;99.90;;;;;;4875351;29;20965;-69
2023/08/07 05:40:49;;;;;;;1.47;1.10;;;15.80;99.90;;;;;;4872437;29;20898;-70
2023/08/07 05:43:17;;;;;;;1.07;1.07;;;15.90;99.90;;;;;;4878141;29;20538;-69
2023/08/07 05:45:46;;;;;;;1.33;1.33;;;15.90;99.90;;;;;;4873637;29;21207;-69
2023/08/07 05:48:13;;;;;;;1.10;1.10;;;15.90;99.90;;;;;;4877352;29;20548;-71
2023/08/07 05:50:39;;;;;;;5.97;1.27;;;16.00;99.90;;;;;;4882542;29;20487;-68
2023/08/07 05:53:06;;;;;;;1.10;1.10;;;16.10;99.90;;;;;;4875824;29;20483;-69
2023/08/07 05:55:33;;;;;;;1.33;1.33;;;16.20;99.90;;;;;;4879540;29;20476;-69
2023/08/07 05:58:00;;;;;;;0.77;0.77;;;16.20;99.90;;;;;;4883018;29;20514;-70
2023/08/07 06:00:28;;;;;;;1.50;1.23;;;16.30;99.90;;;;;;4877602;29;20887;-69
2023/08/07 06:02:55;;;;;;;1.33;0.90;;;16.40;99.90;;;;;;4879823;29;20487;-72
2023/08/07 06:05:21;;;;;;;0.67;0.67;;;16.40;99.90;;;;;;4868496;29;20480;-70
2023/08/07 06:07:49;;;;;;;0.73;0.73;;;16.40;99.90;;;;;;4876470;29;20464;-70
2023/08/07 06:10:16;;;;;;;1.00;1.00;;;16.50;99.90;;;;;;4885558;29;20986;-68
2023/08/07 06:12:42;;;;;;;1.03;1.00;;;16.60;99.90;;;;;;4880671;29;20476;-69
2023/08/07 06:15:09;;;;;;;0.70;0.70;;;16.70;99.90;;;;;;4884195;29;20465;-69
2023/08/07 06:17:39;;;;;;;1.00;1.00;;;16.80;99.90;;;;;;4886282;29;20238;-68
2023/08/07 06:20:09;;;;;;;0.70;0.70;;;16.90;99.90;;;;;;4873500;29;21056;-68
2023/08/07 06:22:36;;;;;;;1.00;1.00;;;17.00;99.90;;;;;;4871587;29;20583;-70
2023/08/07 06:25:02;;;;;;;0.90;0.90;;;16.90;99.90;;;;;;4871636;29;20480;-68
2023/08/07 06:27:30;;;;;;;4.37;0.93;;;16.90;99.90;;;;;;4875948;29;20480;-68
2023/08/07 06:29:57;;;;;;;1.00;1.00;;;16.80;99.90;;;;;;4885542;29;20483;-69
2023/08/07 06:32:35;;;;;;;1.27;1.03;;;16.80;99.90;;;;;;4889914;29;20544;-69
2023/08/07 06:35:09;;;;;;;0.60;0.60;;;16.80;99.90;;;;;;4881824;29;20471;-69
2023/08/07 06:37:39;;;;;;;0.73;0.73;;;16.90;99.90;;;;;;4884836;29;20598;-71
2023/08/07 06:40:13;;;;;;;0.83;0.83;;;16.90;99.90;;;;;;4896407;29;20463;-70
2023/08/07 06:42:44;;;;;;;5.90;1.23;;;16.90;99.90;;;;;;4896545;29;20530;-68
2023/08/07 06:45:11;;;;;;;0.70;0.70;;;16.90;99.90;;;;;;4869010;29;20852;-69
2023/08/07 06:47:42;;;;;;;6.23;0.70;;;16.90;99.90;;;;;;4882771;29;20934;-69
2023/08/07 06:50:12;;;;;;;4.17;1.17;;;17.00;99.90;;;;;;4879660;29;20487;-70
2023/08/07 06:52:42;;;;;;;3.13;1.30;;;17.20;99.90;;;;;;4884311;29;20579;-69
2023/08/07 06:55:09;;;;;;;0.90;0.87;;;17.40;99.90;;;;;;4883173;29;20486;-70
2023/08/07 06:57:37;;;;;;;0.87;0.87;;;17.50;99.90;;;;;;4882265;29;20499;-72
2023/08/07 07:00:07;;;;;;;0.73;0.73;;;17.60;99.90;;;;;;4896152;29;20467;-69
2023/08/07 07:02:37;;;;;;;1.10;1.10;;;17.80;99.90;;;;;;4889983;29;20584;-69
2023/08/07 07:05:07;;;;;;;0.50;0.50;;;18.00;99.90;;;;;;4880124;29;20819;-69
2023/08/07 07:07:36;;;;;;;2.67;1.17;;;18.20;99.90;;;;;;4875636;29;20478;-70
2023/08/07 07:10:10;;;;;;;0.83;0.83;;;18.30;99.90;;;;;;4881194;29;20484;-69
2023/08/07 07:12:37;;;;;;;1.03;0.60;;;18.30;99.90;;;;;;4884179;29;20581;-71
2023/08/07 07:15:08;;;;;;;1.37;0.77;;;18.30;99.90;;;;;;4883630;29;20481;-69
2023/08/07 07:17:42;;;;;;;6.17;1.10;;;18.40;99.90;;;;;;4884851;29;20497;-69
2023/08/07 07:20:12;;;;;;;1.90;1.30;;;18.50;99.90;;;;;;4884196;29;20902;-71
2023/08/07 07:22:42;;;;;;;1.83;1.40;;;18.40;99.90;;;;;;4875808;29;20502;-70
2023/08/07 07:25:21;;;;;;;1.17;1.17;;;18.20;99.90;;;;;;4871505;29;20478;-70
2023/08/07 07:27:53;;;;;;;0.80;0.80;;;18.10;99.90;;;;;;4875538;29;20464;-68
2023/08/07 07:30:22;;;;;;;3.40;0.80;;;18.20;99.90;;;;;;4881239;29;20543;-68
2023/08/07 07:32:53;;;;;;;3.60;1.00;;;18.20;99.90;;;;;;4872857;29;20903;-69
2023/08/07 07:35:21;;;;;;;3.63;1.50;;;18.10;99.90;;;;;;4869191;29;20487;-69
2023/08/07 07:37:56;;;;;;;1.43;0.70;;;18.00;99.90;;;;;;4878811;29;20489;-70
2023/08/07 07:40:24;;;;;;;3.00;1.30;;;17.90;99.90;;;;;;4871813;29;20464;-69
2023/08/07 07:42:53;;;;;;;1.33;1.03;;;17.80;99.90;;;;;;4879671;29;20539;-71
2023/08/07 07:45:25;;;;;;;1.50;1.50;;;17.60;99.90;;;;;;4873097;29;20483;-69
2023/08/07 07:47:53;;;;;;;0.87;0.87;;;17.40;99.90;;;;;;4874109;29;20486;-69
2023/08/07 07:50:22;;;;;;;1.37;1.07;;;17.20;99.90;;;;;;4877507;29;20475;-70
2023/08/07 07:52:52;;;;;;;0.40;0.40;;;17.00;99.90;;;;;;4883239;29;20706;-71
2023/08/07 07:55:20;;;;;;;2.30;1.40;;;16.90;99.90;;;;;;4881984;29;20477;-67
2023/08/07 07:57:52;;;;;;;1.00;0.90;;;16.90;99.90;;;;;;4881044;29;20575;-68
2023/08/07 08:00:22;;;;;;;1.60;0.90;;;16.90;99.90;;;;;;4887195;29;20479;-71
2023/08/07 08:02:50;;;;;;;0.40;0.40;;;17.10;99.90;;;;;;4875737;29;20604;-70
2023/08/07 08:05:21;;;;;;;2.10;1.70;;;17.20;99.90;;;;;;4883562;29;20811;-71
2023/08/07 08:07:48;;;;;;;0.90;0.90;;;17.30;99.90;;;;;;4880090;29;20467;-71
2023/08/07 08:10:17;;;;;;;2.97;1.80;;;17.40;99.90;;;;;;4877612;29;20848;-70
2023/08/07 08:12:47;;;;;;;1.40;0.77;;;17.40;99.90;;;;;;4875724;29;20657;-73
2023/08/07 08:15:18;;;;;;;1.50;0.73;;;17.30;99.90;;;;;;4878482;29;20572;-71
2023/08/07 08:17:48;;;;;;;1.00;1.00;;;17.20;99.90;;;;;;4882277;29;20564;-72
2023/08/07 08:20:26;;;;;;;4.60;3.23;;;17.10;99.90;;;;;;4880664;29;20488;-71
2023/08/07 08:22:55;;;;;;;3.10;0.93;;;16.60;99.90;;;;;;4868747;29;20476;-72
2023/08/07 08:25:32;;;;;;;3.50;0.90;;;16.10;99.90;;;;;;4870412;29;20478;-72
2023/08/07 08:28:02;;;;;;;5.83;1.10;;;15.80;99.90;;;;;;4880251;29;20491;-72
2023/08/07 08:30:39;;;;;;;2.67;1.10;;;15.80;99.90;;;;;;4870057;29;20544;-72
2023/08/07 08:33:09;;;;;;;1.13;1.13;;;15.80;99.90;;;;;;4875534;29;20494;-71
2023/08/07 08:35:39;;;;;;;1.13;1.00;;;16.00;99.90;;;;;;4870560;29;20476;-71
2023/08/07 08:38:17;;;;;;;3.50;1.53;;;16.30;99.90;;;;;;4872434;29;20535;-72
2023/08/07 08:40:48;;;;;;;2.00;1.13;;;16.50;99.90;;;;;;4873790;29;20520;-72
2023/08/07 08:43:16;;;;;;;2.67;1.43;;;16.60;99.90;;;;;;4881168;29;20471;-73
2023/08/07 08:45:46;;;;;;;2.07;1.20;;;16.50;99.90;;;;;;4885749;29;20487;-73
2023/08/07 08:48:25;;;;;;;1.83;1.60;;;16.40;99.90;;;;;;4877485;29;20476;-71
2023/08/07 08:50:57;;;;;;;2.63;0.90;;;16.30;99.90;;;;;;4878452;29;20837;-72
2023/08/07 08:53:26;;;;;;;0.77;0.77;;;16.30;99.90;;;;;;4869663;29;20476;-73
2023/08/07 08:55:56;;;;;;;1.37;0.70;;;16.30;99.90;;;;;;4870307;29;20474;-72
2023/08/07 08:58:25;;;;;;;5.10;1.90;;;16.30;99.90;;;;;;4876409;29;21264;-73
2023/08/07 09:00:56;;;;;;;5.70;1.13;;;16.50;99.90;;;;;;4882997;29;21019;-73
2023/08/07 09:03:25;;;;;;;2.10;1.07;;;16.60;99.90;;;;;;4868122;29;20498;-72
2023/08/07 09:05:55;;;;;;;5.47;1.40;;;17.00;99.90;;;;;;4874508;29;20947;-73
2023/08/07 09:08:25;;;;;;;0.83;0.73;;;17.20;99.90;;;;;;4872332;29;20470;-73
2023/08/07 09:10:55;;;;;;;0.80;0.80;;;17.30;99.90;;;;;;4875813;29;20491;-73
2023/08/07 09:13:27;;;;;;;8.77;1.87;;;17.40;99.90;;;;;;4886895;29;21461;-72
2023/08/07 09:16:01;;;;;;;3.13;1.27;;;17.50;99.90;;;;;;4883598;29;20496;-74
2023/08/07 09:18:31;;;;;;;3.00;1.80;;;17.70;99.90;;;;;;4875595;29;21251;-72
2023/08/07 09:21:03;;;;;;;2.67;0.93;;;17.80;99.90;;;;;;4875432;29;21018;-73
2023/08/07 09:23:33;;;;;;;1.40;0.80;;;17.90;99.90;;;;;;4892897;29;20946;-72
2023/08/07 09:26:08;;;;;;;2.37;1.00;;;18.00;99.90;;;;;;4878960;29;20483;-71
2023/08/07 09:28:36;;;;;;;11.00;1.37;;;18.10;99.90;;;;;;4874606;29;20967;-73
2023/08/07 09:31:08;;;;;;;1.37;1.17;;;18.30;99.90;;;;;;4877657;29;20606;-72
2023/08/07 09:33:40;;;;;;;1.23;1.03;;;18.40;99.90;;;;;;4886284;29;20519;-72
2023/08/07 09:36:13;;;;;;;2.43;1.20;;;18.50;99.90;;;;;;4890921;29;20485;-73
2023/08/07 09:38:42;;;;;;;2.10;0.87;;;18.50;99.90;;;;;;4882631;29;20502;-73
2023/08/07 09:41:11;;;;;;;2.40;0.80;;;18.50;99.90;;;;;;4877770;29;20527;-72
2023/08/07 09:43:43;;;;;;;4.30;1.07;;;18.40;99.90;;;;;;4873276;29;20521;-71
2023/08/07 09:46:19;;;;;;;0.80;0.70;;;18.50;99.90;;;;;;4875418;29;20500;-71
2023/08/07 09:48:51;;;;;;;9.57;1.50;;;18.50;99.90;;;;;;4875337;29;20456;-71
2023/08/07 09:51:20;;;;;;;1.07;1.07;;;18.60;99.90;;;;;;4870310;29;20587;-71
2023/08/07 09:53:50;;;;;;;6.27;1.07;;;18.60;99.90;;;;;;4873936;29;20474;-71
2023/08/07 09:56:19;;;;;;;0.60;0.60;;;18.70;99.90;;;;;;4877744;29;20489;-72
2023/08/07 09:58:59;;;;;;;1.67;0.90;;;18.70;99.90;;;;;;4860216;29;20980;-71
2023/08/07 10:01:34;;;;;;;2.77;0.63;;;18.80;99.90;;;;;;4881496;29;20500;-70
2023/08/07 10:04:02;;;;;;;1.90;0.83;;;18.90;99.90;;;;;;4882908;29;20523;-72
2023/08/07 10:06:36;;;;;;;7.63;1.47;;;18.90;99.90;;;;;;4874704;29;20946;-70
2023/08/07 10:09:07;;;;;;;1.10;1.00;;;18.90;99.90;;;;;;4882467;29;20475;-72
2023/08/07 10:11:48;;;;;;;3.37;0.97;;;19.00;99.90;;;;;;4871260;29;21020;-71
2023/08/07 10:14:16;;;;;;;0.87;0.87;;;19.00;99.90;;;;;;4873225;29;20472;-71
2023/08/07 10:16:44;;;;;;;1.57;0.83;;;19.10;99.90;;;;;;4874310;29;21187;-71
2023/08/07 10:19:11;;;;;;;2.83;1.13;;;19.10;99.90;;;;;;4877330;29;20985;-71
2023/08/07 10:21:44;;;;;;;0.50;0.50;;;19.20;99.90;;;;;;4875231;29;21006;-73
2023/08/07 10:24:12;;;;;;;1.20;1.10;;;19.10;99.90;;;;;;4875433;29;20960;-70
2023/08/07 10:26:45;;;;;;;3.40;1.60;;;19.00;99.90;;;;;;4861311;29;20767;-70
2023/08/07 10:29:19;;;;;;;2.10;1.03;;;18.90;99.90;;;;;;4883163;29;20537;-73
2023/08/07 10:31:50;;;;;;;0.60;0.60;;;19.00;99.90;;;;;;4872268;29;21027;-73
2023/08/07 10:34:19;;;;;;;2.20;1.90;;;19.20;99.90;;;;;;4880534;29;20478;-70
2023/08/07 10:36:47;;;;;;;0.87;0.83;;;18.90;99.90;;;;;;4884372;29;20531;-70
2023/08/07 10:39:17;;;;;;;0.73;0.73;;;18.60;99.90;;;;;;4874678;29;21039;-71
2023/08/07 10:41:49;;;;;;;1.00;0.90;;;18.30;99.90;;;;;;4865999;29;20500;-70
2023/08/07 10:44:22;;;;;;;2.40;1.60;;;17.80;99.90;;;;;;4869378;29;20457;-70
2023/08/07 10:46:51;;;;;;;4.10;0.50;;;17.40;99.90;;;;;;4872920;29;20529;-70
2023/08/07 10:49:38;;;;;;;1.33;1.17;;;17.20;99.90;;;;;;4883061;29;20527;-72
2023/08/07 10:52:10;;;;;;;0.67;0.67;;;17.10;99.90;;;;;;4882332;29;20582;-71
2023/08/07 10:54:44;;;;;;;0.87;0.87;;;17.20;99.90;;;;;;4877050;29;20464;-73
2023/08/07 10:57:19;;;;;;;5.40;1.47;;;17.40;99.90;;;;;;4877772;29;20475;-73
2023/08/07 11:00:04;;;;;;;2.00;0.63;;;17.60;99.90;;;;;;4874840;29;21024;-70
2023/08/07 11:02:33;;;;;;;0.30;0.30;;;17.80;99.90;;;;;;4884689;29;20491;-71
2023/08/07 11:04:59;;;;;;;2.97;0.90;;;18.00;99.90;;;;;;4891223;29;20476;-71
2023/08/07 11:07:27;;;;;;;2.10;0.87;;;18.40;99.90;;;;;;4875595;29;20473;-70
2023/08/07 11:09:54;;;;;;;3.57;1.67;;;18.60;99.90;;;;;;4868481;29;20489;-70
2023/08/07 11:12:25;;;;;;;3.23;1.50;;;18.80;99.90;;;;;;4870653;29;20502;-71
2023/08/07 11:14:56;;;;;;;3.00;1.60;;;18.90;99.90;;;;;;4882944;29;20489;-71
2023/08/07 11:17:25;;;;;;;0.60;0.60;;;18.90;99.90;;;;;;4874665;29;20469;-70
2023/08/07 11:19:52;;;;;;;1.33;0.87;;;19.00;99.90;;;;;;4877141;29;20524;-70
2023/08/07 11:22:19;;;;;;;3.10;2.03;;;19.00;99.90;;;;;;4877298;29;20491;-70
2023/08/07 11:24:46;;;;;;;2.30;0.70;;;19.10;99.90;;;;;;4877217;29;20842;-70
2023/08/07 11:27:13;;;;;;;1.00;1.00;;;19.10;99.90;;;;;;4875476;29;20484;-71
2023/08/07 11:29:41;;;;;;;1.00;1.00;;;19.10;99.90;;;;;;4879535;29;21167;-70
2023/08/07 11:32:09;;;;;;;0.77;0.77;;;19.10;99.90;;;;;;4877523;29;20485;-70
2023/08/07 11:34:36;;;;;;;0.70;0.60;;;19.10;99.90;;;;;;4877701;29;20564;-71
2023/08/07 11:37:03;;;;;;;0.70;0.70;;;19.20;99.90;;;;;;4879158;29;20477;-71
2023/08/07 11:39:30;;;;;;;1.27;0.83;;;19.30;99.90;;;;;;4877650;29;20486;-70
2023/08/07 11:41:56;;;;;;;1.03;0.80;;;19.30;99.90;;;;;;4870105;29;20832;-71
2023/08/07 11:44:24;;;;;;;0.90;0.90;;;19.30;99.90;;;;;;4882203;29;20495;-71
2023/08/07 11:46:52;;;;;;;1.13;1.00;;;19.50;99.90;;;;;;4876613;29;20658;-70
2023/08/07 11:49:20;;;;;;;2.53;0.83;;;19.50;99.90;;;;;;4884092;29;20482;-70
2023/08/07 11:51:47;;;;;;;1.47;0.90;;;19.30;99.90;;;;;;4874365;29;20490;-72
2023/08/07 11:54:15;;;;;;;1.13;0.90;;;19.10;99.90;;;;;;4875339;29;20476;-71
2023/08/07 11:56:43;;;;;;;1.50;0.60;;;18.90;99.90;;;;;;4884897;29;20468;-70
2023/08/07 11:59:10;;;;;;;1.33;0.73;;;18.90;99.90;;;;;;4890857;29;20584;-70
2023/08/07 12:01:39;;;;;;;0.40;0.40;;;18.80;99.90;;;;;;4881550;29;20563;-70
2023/08/07 12:04:11;;;;;;;1.03;0.70;;;18.70;99.90;;;;;;4869435;29;20484;-70
2023/08/07 12:06:39;;;;;;;1.13;0.80;;;18.80;99.90;;;;;;4885262;29;20463;-69
2023/08/07 12:09:11;;;;;;;0.73;0.60;;;18.90;99.90;;;;;;4878878;29;20488;-70
2023/08/07 12:11:38;;;;;;;0.53;0.53;;;19.20;99.90;;;;;;4881466;29;20551;-71
2023/08/07 12:14:05;;;;;;;0.53;0.50;;;19.30;99.90;;;;;;4875549;29;20564;-73
2023/08/07 12:16:34;;;;;;;2.77;0.50;;;18.90;99.90;;;;;;4874243;29;20484;-70
2023/08/07 12:19:00;;;;;;;1.43;1.07;;;18.40;99.90;;;;;;4872831;29;20507;-69
2023/08/07 12:21:29;;;;;;;0.47;0.47;;;18.10;99.90;;;;;;4872647;29;20507;-69
2023/08/07 12:23:57;;;;;;;0.70;0.60;;;18.10;99.90;;;;;;4868135;29;20515;-69
2023/08/07 12:26:23;;;;;;;0.30;0.30;;;18.30;99.90;;;;;;4880206;29;20471;-70
2023/08/07 12:28:50;;;;;;;1.23;0.60;;;18.40;99.90;;;;;;4866220;29;20477;-70
2023/08/07 12:31:17;;;;;;;0.57;0.57;;;18.40;99.90;;;;;;4876837;29;21005;-69
2023/08/07 12:33:44;;;;;;;0.70;0.30;;;18.50;99.90;;;;;;4876163;29;20587;-69
2023/08/07 12:36:13;;;;;;;1.03;1.03;;;18.80;99.90;;;;;;4883264;29;20471;-70
2023/08/07 12:38:41;;;;;;;0.60;0.60;;;19.00;99.90;;;;;;4875338;29;20888;-70
2023/08/07 12:41:08;;;;;;;0.63;0.63;;;19.20;99.90;;;;;;4876313;29;20859;-70
2023/08/07 12:43:34;;;;;;;2.40;1.00;;;19.10;99.90;;;;;;4874464;29;20470;-69
2023/08/07 12:46:01;;;;;;;0.70;0.70;;;19.00;99.90;;;;;;4883052;29;20478;-70
2023/08/07 12:48:28;;;;;;;0.70;0.70;;;18.90;99.90;;;;;;4875436;29;20476;-70
2023/08/07 12:50:55;;;;;;;2.33;0.90;;;18.90;99.90;;;;;;4875582;29;20508;-72
2023/08/07 12:53:21;;;;;;;9.70;0.80;;;19.00;99.90;;;;;;4869712;29;20548;-70
2023/08/07 12:55:49;;;;;;;0.60;0.60;;;19.10;99.90;;;;;;4879045;29;20843;-70
2023/08/07 12:58:18;;;;;;;1.80;0.50;;;19.10;99.90;;;;;;4875396;29;20461;-71
2023/08/07 13:00:45;;;;;;;3.33;1.90;;;19.10;99.90;;;;;;4871111;29;20571;-70
2023/08/07 13:03:11;;;;;;;4.23;0.97;;;19.00;99.90;;;;;;4875866;29;20472;-71
2023/08/07 13:05:38;;;;;;;1.33;0.80;;;19.00;99.90;;;;;;4876316;29;20484;-71
2023/08/07 13:08:05;;;;;;;1.13;0.70;;;19.00;99.90;;;;;;4875585;29;20469;-70
2023/08/07 13:10:31;;;;;;;2.20;0.80;;;19.20;99.90;;;;;;4872844;29;20551;-70
2023/08/07 13:13:01;;;;;;;1.90;0.87;;;19.20;99.90;;;;;;4873642;29;20497;-71
2023/08/07 13:15:29;;;;;;;3.50;1.33;;;19.20;99.90;;;;;;4885263;29;20467;-70
2023/08/07 13:17:55;;;;;;;2.50;0.60;;;19.30;99.90;;;;;;4894510;29;20476;-71
2023/08/07 13:20:22;;;;;;;0.87;0.87;;;19.30;99.90;;;;;;4883443;29;20496;-71
2023/08/07 13:22:49;;;;;;;2.97;1.03;;;19.40;99.90;;;;;;4880656;29;20469;-69
2023/08/07 13:25:15;;;;;;;0.60;0.60;;;19.60;99.90;;;;;;4875145;29;20483;-70
2023/08/07 13:27:43;;;;;;;0.70;0.70;;;19.90;99.90;;;;;;4875553;29;20813;-71
2023/08/07 13:30:11;;;;;;;2.53;1.00;;;19.90;99.90;;;;;;4873195;29;20466;-70
2023/08/07 13:32:38;;;;;;;0.97;0.80;;;19.70;99.90;;;;;;4881027;29;20858;-71
2023/08/07 13:35:06;;;;;;;3.30;0.83;;;19.50;99.90;;;;;;4893985;29;20828;-70
2023/08/07 13:37:33;;;;;;;0.80;0.80;;;19.30;99.90;;;;;;4894562;29;20469;-70
2023/08/07 13:40:00;;;;;;;0.60;0.60;;;19.00;99.90;;;;;;4882914;29;20551;-71
2023/08/07 13:42:27;;;;;;;0.50;0.50;;;18.80;99.90;;;;;;4878810;29;20492;-70
2023/08/07 13:44:55;;;;;;;1.90;0.77;;;18.80;99.90;;;;;;4875675;29;20461;-70
2023/08/07 13:47:25;;;;;;;0.40;0.40;;;18.70;99.90;;;;;;4875483;29;20472;-70
2023/08/07 13:49:52;;;;;;;1.23;1.20;;;18.50;99.90;;;;;;4874932;29;20468;-70
2023/08/07 13:52:19;;;;;;;0.60;0.60;;;18.20;99.90;;;;;;4894189;29;20797;-70
2023/08/07 13:54:46;;;;;;;0.97;0.67;;;17.90;99.90;;;;;;4883840;29;20484;-70
2023/08/07 13:57:12;;;;;;;1.00;1.00;;;17.80;99.90;;;;;;4893852;29;20466;-71
2023/08/07 13:59:40;;;;;;;0.73;0.70;;;17.60;99.90;;;;;;4876032;29;21034;-71
2023/08/07 14:02:07;;;;;;;0.30;0.30;;;17.40;99.90;;;;;;4885236;29;20966;-70
2023/08/07 14:04:35;;;;;;;0.80;0.80;;;17.40;99.90;;;;;;4882608;29;20556;-71
2023/08/07 14:07:03;;;;;;;2.63;1.03;;;17.60;99.90;;;;;;4880248;29;20587;-70
2023/08/07 14:09:30;;;;;;;3.20;1.17;;;17.60;99.90;;;;;;4886203;29;20476;-69
2023/08/07 14:11:57;;;;;;;1.03;0.77;;;17.70;99.90;;;;;;4877603;29;20508;-69
2023/08/07 14:14:23;;;;;;;2.00;1.13;;;17.70;99.90;;;;;;4880601;29;20857;-70
2023/08/07 14:16:50;;;;;;;3.80;0.83;;;17.90;99.90;;;;;;4872396;29;20499;-70
2023/08/07 14:19:17;;;;;;;0.50;0.50;;;18.00;99.90;;;;;;4869971;29;20480;-70
2023/08/07 14:21:45;;;;;;;0.83;0.63;;;18.00;99.90;;;;;;4871791;29;20488;-69
2023/08/07 14:24:12;;;;;;;0.53;0.53;;;18.00;99.90;;;;;;4873355;29;20499;-70
2023/08/07 14:26:39;;;;;;;1.60;1.37;;;18.10;99.90;;;;;;4884378;29;20475;-70
2023/08/07 14:29:05;;;;;;;2.23;0.97;;;18.20;99.90;;;;;;4876465;29;20480;-70
2023/08/07 14:31:32;;;;;;;2.60;1.20;;;18.30;99.90;;;;;;4873221;29;20515;-71
2023/08/07 14:33:58;;;;;;;1.17;0.67;;;18.30;99.90;;;;;;4877548;29;20464;-71
2023/08/07 14:36:25;;;;;;;0.83;0.83;;;18.30;99.90;;;;;;4878684;29;20500;-71
2023/08/07 14:38:53;;;;;;;3.97;1.03;;;18.20;99.90;;;;;;4879232;29;20474;-71
2023/08/07 14:41:20;;;;;;;1.03;0.87;;;18.10;99.90;;;;;;4877474;29;20523;-71
2023/08/07 14:43:47;;;;;;;0.50;0.47;;;18.00;99.90;;;;;;4887603;29;20502;-70
2023/08/07 14:46:14;;;;;;;0.50;0.50;;;17.80;99.90;;;;;;4875897;29;20974;-69
2023/08/07 14:48:40;;;;;;;5.20;1.33;;;17.80;99.90;;;;;;4874097;29;20480;-71
2023/08/07 14:51:07;;;;;;;1.70;0.90;;;17.70;99.90;;;;;;4877976;29;20492;-70
2023/08/07 14:53:35;;;;;;;1.10;1.10;;;17.70;99.90;;;;;;4877426;29;20479;-70
2023/08/07 14:56:03;;;;;;;1.20;1.10;;;17.80;99.90;;;;;;4884843;29;20839;-70
2023/08/07 14:58:32;;;;;;;4.73;1.27;;;17.80;99.90;;;;;;4879703;29;20500;-70
2023/08/07 15:00:59;;;;;;;1.03;0.97;;;17.70;99.90;;;;;;4877316;29;20512;-71
2023/08/07 15:03:25;;;;;;;3.20;1.30;;;17.70;99.90;;;;;;4874154;29;20468;-71
2023/08/07 15:05:52;;;;;;;5.63;1.30;;;17.60;99.90;;;;;;4878875;29;20480;-70
2023/08/07 15:08:18;;;;;;;1.20;0.90;;;17.50;99.90;;;;;;4878627;29;20476;-71
2023/08/07 15:10:45;;;;;;;0.90;0.90;;;17.50;99.90;;;;;;4873760;29;20488;-70
2023/08/07 15:13:13;;;;;;;3.63;1.10;;;17.50;99.90;;;;;;4876100;29;20468;-70
2023/08/07 15:15:40;;;;;;;1.73;1.73;;;17.70;99.90;;;;;;4887239;29;20467;-71
2023/08/07 15:18:06;;;;;;;2.20;1.60;;;17.80;99.90;;;;;;4867176;29;20483;-70
2023/08/07 15:20:35;;;;;;;0.63;0.63;;;17.80;99.90;;;;;;4877018;29;20566;-71
2023/08/07 15:23:03;;;;;;;1.30;0.87;;;17.80;99.90;;;;;;4883498;29;20471;-71
2023/08/07 15:25:30;;;;;;;0.60;0.60;;;17.80;99.90;;;;;;4883913;29;21051;-70
2023/08/07 15:28:00;;;;;;;3.33;0.87;;;17.70;99.90;;;;;;4883279;29;21086;-70
2023/08/07 15:30:30;;;;;;;1.37;0.50;;;17.80;99.90;;;;;;4876176;29;20483;-70
2023/08/07 15:32:57;;;;;;;0.80;0.80;;;17.70;99.90;;;;;;4878468;29;20499;-70
2023/08/07 15:35:24;;;;;;;0.57;0.57;;;17.80;99.90;;;;;;4876458;29;20476;-71
2023/08/07 15:37:50;;;;;;;8.33;0.97;;;17.80;99.90;;;;;;4876896;29;20853;-70
2023/08/07 15:40:17;;;;;;;1.03;1.03;;;17.90;99.90;;;;;;4875735;29;20488;-70
2023/08/07 15:42:45;;;;;;;3.73;2.43;;;18.00;99.90;;;;;;4876742;29;20483;-71
2023/08/07 15:45:12;;;;;;;8.40;1.17;;;18.00;99.90;;;;;;4883893;29;20499;-70
2023/08/07 15:47:40;;;;;;;3.13;1.33;;;18.00;99.90;;;;;;4875462;29;20507;-71
2023/08/07 15:50:08;;;;;;;1.93;1.10;;;17.80;99.90;;;;;;4873440;29;20472;-71
2023/08/07 15:52:35;;;;;;;0.63;0.63;;;17.80;99.90;;;;;;4883295;29;20617;-70
2023/08/07 15:55:02;;;;;;;3.20;1.03;;;17.80;99.90;;;;;;4884342;29;20467;-69
2023/08/07 15:57:29;;;;;;;7.13;1.77;;;17.80;99.90;;;;;;4874759;29;20920;-70
2023/08/07 15:59:55;;;;;;;0.80;0.80;;;17.70;99.90;;;;;;4884172;29;20492;-69
2023/08/07 16:02:22;;;;;;;1.73;1.30;;;17.90;99.90;;;;;;4873122;29;20499;-70
2023/08/07 16:04:50;;;;;;;1.80;1.13;;;18.00;99.90;;;;;;4884492;29;20484;-70
2023/08/07 16:07:17;;;;;;;0.70;0.70;;;18.00;99.90;;;;;;4860460;29;20494;-72
2023/08/07 16:09:43;;;;;;;1.03;1.03;;;17.90;99.90;;;;;;4883471;29;20461;-69
2023/08/07 16:12:10;;;;;;;0.77;0.77;;;17.80;99.90;;;;;;4882377;29;20489;-73
2023/08/07 16:14:38;;;;;;;2.37;0.80;;;17.70;99.90;;;;;;4873411;29;20473;-70
2023/08/07 16:17:05;;;;;;;1.40;0.97;;;17.70;99.90;;;;;;4878599;29;20477;-70
2023/08/07 16:19:32;;;;;;;0.57;0.57;;;17.60;99.90;;;;;;4875906;29;20847;-71
2023/08/07 16:22:00;;;;;;;2.00;0.80;;;17.60;99.90;;;;;;4874417;29;20496;-71
2023/08/07 16:24:27;;;;;;;11.27;0.90;;;17.60;99.90;;;;;;4886548;29;20483;-68
2023/08/07 16:26:53;;;;;;;7.30;1.20;;;17.60;99.90;;;;;;4880488;29;21284;-69
2023/08/07 16:29:20;;;;;;;3.43;1.90;;;17.60;99.90;;;;;;4876955;29;20840;-68
2023/08/07 16:31:47;;;;;;;0.80;0.80;;;17.60;99.90;;;;;;4874584;29;20487;-70
2023/08/07 16:34:14;;;;;;;0.97;0.90;;;17.70;99.90;;;;;;4876827;29;20810;-68
2023/08/07 16:36:40;;;;;;;1.80;0.63;;;17.50;99.90;;;;;;4880705;29;20480;-70
2023/08/07 16:39:09;;;;;;;1.70;0.60;;;17.50;99.90;;;;;;4881535;29;20468;-70
2023/08/07 16:41:36;;;;;;;3.13;0.80;;;17.40;99.90;;;;;;4873657;29;20503;-70
2023/08/07 16:44:03;;;;;;;8.03;0.60;;;17.40;99.90;;;;;;4875703;29;20461;-69
2023/08/07 16:46:29;;;;;;;0.80;0.80;;;17.60;99.90;;;;;;4881218;29;20813;-70
2023/08/07 16:48:56;;;;;;;2.30;1.13;;;17.70;99.90;;;;;;4875864;29;20560;-70
2023/08/07 16:51:23;;;;;;;15.50;1.33;;;17.80;99.90;;;;;;4878563;29;20515;-70